sensor_id;sensor_type;location;lat;lon;timestamp;pressure;altitude;pressure_sealevel;temperature;humidity
83116;BME280;72996;40.206;44.498;2024-03-22T00:00:43;88506.16;;;10.97;52.05
83116;BME280;72996;40.206;44.498;2024-03-22T00:03:09;88550.22;;;11.23;52.25
83116;BME280;72996;40.206;44.498;2024-03-22T00:05:34;88560.50;;;11.38;52.10
83116;BME280;72996;40.206;44.498;2024-03-22T00:08:00;88555.50;;;11.42;51.64
83116;BME280;72996;40.206;44.498;2024-03-22T00:10:26;88537.38;;;11.38;51.70
83116;BME280;72996;40.206;44.498;2024-03-22T00:12:52;88537.97;;;11.37;51.78
83116;BME280;72996;40.206;44.498;2024-03-22T00:15:17;88521.81;;;11.33;51.47
83116;BME280;72996;40.206;44.498;2024-03-22T00:17:44;88554.75;;;11.51;51.36
83116;BME280;72996;40.206;44.498;2024-03-22T00:20:10;88552.41;;;11.45;51.26
83116;BME280;72996;40.206;44.498;2024-03-22T00:22:36;88521.13;;;11.23;51.29
83116;BME280;72996;40.206;44.498;2024-03-22T00:25:02;88515.16;;;11.13;52.00
83116;BME280;72996;40.206;44.498;2024-03-22T00:27:28;88517.66;;;11.11;51.89
83116;BME280;72996;40.206;44.498;2024-03-22T00:29:53;88539.78;;;11.25;51.99
83116;BME280;72996;40.206;44.498;2024-03-22T00:32:19;88531.84;;;11.25;52.22
83116;BME280;72996;40.206;44.498;2024-03-22T00:34:45;88536.16;;;11.30;51.79
83116;BME280;72996;40.206;44.498;2024-03-22T00:37:11;88499.31;;;11.13;51.78
83116;BME280;72996;40.206;44.498;2024-03-22T00:39:37;88518.50;;;11.23;51.50
83116;BME280;72996;40.206;44.498;2024-03-22T00:42:05;88526.97;;;11.21;51.85
83116;BME280;72996;40.206;44.498;2024-03-22T00:44:31;88522.94;;;11.11;52.22
83116;BME280;72996;40.206;44.498;2024-03-22T00:46:57;88521.72;;;11.02;52.09
83116;BME280;72996;40.206;44.498;2024-03-22T00:49:22;88507.41;;;10.96;52.27
83116;BME280;72996;40.206;44.498;2024-03-22T00:51:48;88499.59;;;10.98;51.86
83116;BME280;72996;40.206;44.498;2024-03-22T00:54:14;88498.63;;;11.03;51.67
83116;BME280;72996;40.206;44.498;2024-03-22T00:56:39;88520.97;;;11.21;51.54
83116;BME280;72996;40.206;44.498;2024-03-22T00:59:05;88517.41;;;11.07;51.48
83116;BME280;72996;40.206;44.498;2024-03-22T01:01:34;88511.97;;;11.05;51.35
83116;BME280;72996;40.206;44.498;2024-03-22T01:03:59;88522.00;;;10.97;51.77
83116;BME280;72996;40.206;44.498;2024-03-22T01:06:27;88505.59;;;10.79;52.14
83116;BME280;72996;40.206;44.498;2024-03-22T01:08:53;88513.22;;;10.85;52.30
83116;BME280;72996;40.206;44.498;2024-03-22T01:11:19;88501.41;;;10.76;52.38
83116;BME280;72996;40.206;44.498;2024-03-22T01:13:44;88517.13;;;10.84;51.84
83116;BME280;72996;40.206;44.498;2024-03-22T01:16:10;88505.47;;;10.87;52.35
83116;BME280;72996;40.206;44.498;2024-03-22T01:18:36;88499.91;;;10.83;52.16
83116;BME280;72996;40.206;44.498;2024-03-22T01:21:02;88482.50;;;10.70;52.41
83116;BME280;72996;40.206;44.498;2024-03-22T01:23:28;88482.09;;;10.74;52.14
83116;BME280;72996;40.206;44.498;2024-03-22T01:25:54;88489.03;;;10.79;52.31
83116;BME280;72996;40.206;44.498;2024-03-22T01:28:19;88489.03;;;10.88;51.85
83116;BME280;72996;40.206;44.498;2024-03-22T01:30:53;88482.06;;;10.93;52.46
83116;BME280;72996;40.206;44.498;2024-03-22T01:33:18;88457.16;;;10.86;51.75
83116;BME280;72996;40.206;44.498;2024-03-22T01:35:44;88458.28;;;10.93;51.72
83116;BME280;72996;40.206;44.498;2024-03-22T01:38:10;88430.75;;;10.77;51.61
83116;BME280;72996;40.206;44.498;2024-03-22T01:40:36;88471.78;;;10.97;51.68
83116;BME280;72996;40.206;44.498;2024-03-22T01:43:02;88463.00;;;10.94;51.85
83116;BME280;72996;40.206;44.498;2024-03-22T01:45:32;88458.56;;;10.78;52.58
83116;BME280;72996;40.206;44.498;2024-03-22T01:47:58;88475.97;;;10.81;52.13
83116;BME280;72996;40.206;44.498;2024-03-22T01:50:25;88476.09;;;10.64;52.54
83116;BME280;72996;40.206;44.498;2024-03-22T01:52:51;88456.50;;;10.29;52.84
83116;BME280;72996;40.206;44.498;2024-03-22T01:55:20;88485.16;;;10.42;52.95
83116;BME280;72996;40.206;44.498;2024-03-22T01:57:49;88486.84;;;10.37;53.16
83116;BME280;72996;40.206;44.498;2024-03-22T02:00:19;88486.69;;;10.35;53.16
83116;BME280;72996;40.206;44.498;2024-03-22T02:02:45;88484.59;;;10.34;52.87
83116;BME280;72996;40.206;44.498;2024-03-22T02:05:12;88492.13;;;10.37;53.00
83116;BME280;72996;40.206;44.498;2024-03-22T02:07:38;88490.72;;;10.46;52.53
83116;BME280;72996;40.206;44.498;2024-03-22T02:10:04;88491.56;;;10.58;53.26
83116;BME280;72996;40.206;44.498;2024-03-22T02:12:30;88487.81;;;10.61;53.16
83116;BME280;72996;40.206;44.498;2024-03-22T02:14:57;88447.06;;;10.45;52.82
83116;BME280;72996;40.206;44.498;2024-03-22T02:17:23;88483.47;;;10.84;52.63
83116;BME280;72996;40.206;44.498;2024-03-22T02:19:49;88482.94;;;10.86;51.72
83116;BME280;72996;40.206;44.498;2024-03-22T02:22:14;88462.59;;;10.88;51.83
83116;BME280;72996;40.206;44.498;2024-03-22T02:24:40;88479.13;;;11.08;51.67
83116;BME280;72996;40.206;44.498;2024-03-22T02:27:06;88467.88;;;10.98;51.74
83116;BME280;72996;40.206;44.498;2024-03-22T02:29:32;88456.03;;;10.99;51.34
83116;BME280;72996;40.206;44.498;2024-03-22T02:31:57;88461.31;;;11.08;51.60
83116;BME280;72996;40.206;44.498;2024-03-22T02:34:23;88473.38;;;11.21;51.53
83116;BME280;72996;40.206;44.498;2024-03-22T02:36:49;88467.41;;;11.20;51.59
83116;BME280;72996;40.206;44.498;2024-03-22T02:39:15;88461.25;;;11.27;51.00
83116;BME280;72996;40.206;44.498;2024-03-22T02:41:40;88481.97;;;11.31;50.98
83116;BME280;72996;40.206;44.498;2024-03-22T02:44:06;88477.28;;;11.20;50.91
83116;BME280;72996;40.206;44.498;2024-03-22T02:46:32;88472.00;;;11.20;51.11
83116;BME280;72996;40.206;44.498;2024-03-22T02:49:05;88468.34;;;11.25;50.88
83116;BME280;72996;40.206;44.498;2024-03-22T02:51:31;88450.75;;;11.08;50.93
83116;BME280;72996;40.206;44.498;2024-03-22T02:53:56;88452.66;;;11.17;50.97
83116;BME280;72996;40.206;44.498;2024-03-22T02:56:23;88480.59;;;11.30;51.03
83116;BME280;72996;40.206;44.498;2024-03-22T02:58:51;88473.91;;;11.29;50.64
83116;BME280;72996;40.206;44.498;2024-03-22T03:01:17;88472.81;;;11.32;50.68
83116;BME280;72996;40.206;44.498;2024-03-22T03:03:43;88457.66;;;11.13;50.77
83116;BME280;72996;40.206;44.498;2024-03-22T03:06:09;88461.31;;;11.08;50.90
83116;BME280;72996;40.206;44.498;2024-03-22T03:08:35;88458.13;;;11.00;51.22
83116;BME280;72996;40.206;44.498;2024-03-22T03:11:00;88456.75;;;10.90;51.36
83116;BME280;72996;40.206;44.498;2024-03-22T03:13:26;88462.84;;;11.02;51.27
83116;BME280;72996;40.206;44.498;2024-03-22T03:15:54;88480.47;;;11.18;51.22
83116;BME280;72996;40.206;44.498;2024-03-22T03:18:19;88494.28;;;11.17;50.97
83116;BME280;72996;40.206;44.498;2024-03-22T03:20:45;88466.06;;;11.00;51.21
83116;BME280;72996;40.206;44.498;2024-03-22T03:23:11;88483.44;;;11.13;51.52
83116;BME280;72996;40.206;44.498;2024-03-22T03:25:36;88472.31;;;11.05;50.91
83116;BME280;72996;40.206;44.498;2024-03-22T03:28:02;88487.34;;;11.12;51.17
83116;BME280;72996;40.206;44.498;2024-03-22T03:30:28;88489.00;;;11.17;50.81
83116;BME280;72996;40.206;44.498;2024-03-22T03:32:54;88472.25;;;11.24;50.66
83116;BME280;72996;40.206;44.498;2024-03-22T03:35:19;88455.31;;;11.08;50.78
83116;BME280;72996;40.206;44.498;2024-03-22T03:37:45;88479.47;;;11.33;50.46
83116;BME280;72996;40.206;44.498;2024-03-22T03:40:11;88469.75;;;11.26;50.24
83116;BME280;72996;40.206;44.498;2024-03-22T03:42:37;88475.84;;;11.38;50.50
83116;BME280;72996;40.206;44.498;2024-03-22T03:45:02;88469.84;;;11.37;50.69
83116;BME280;72996;40.206;44.498;2024-03-22T03:47:28;88461.25;;;11.37;50.47
83116;BME280;72996;40.206;44.498;2024-03-22T03:49:54;88456.59;;;11.47;50.38
83116;BME280;72996;40.206;44.498;2024-03-22T03:52:20;88433.53;;;11.38;50.16
83116;BME280;72996;40.206;44.498;2024-03-22T03:54:45;88449.91;;;11.46;50.38
83116;BME280;72996;40.206;44.498;2024-03-22T03:57:11;88462.16;;;11.51;50.24
83116;BME280;72996;40.206;44.498;2024-03-22T03:59:37;88447.41;;;11.48;50.12
83116;BME280;72996;40.206;44.498;2024-03-22T04:02:03;88446.41;;;11.53;50.01
83116;BME280;72996;40.206;44.498;2024-03-22T04:04:31;88455.03;;;11.63;49.92
83116;BME280;72996;40.206;44.498;2024-03-22T04:06:57;88421.06;;;11.50;49.75
83116;BME280;72996;40.206;44.498;2024-03-22T04:09:22;88433.88;;;11.63;49.36
83116;BME280;72996;40.206;44.498;2024-03-22T04:11:48;88408.56;;;11.41;49.66
83116;BME280;72996;40.206;44.498;2024-03-22T04:14:14;88408.72;;;11.43;49.68
83116;BME280;72996;40.206;44.498;2024-03-22T04:16:39;88410.69;;;11.33;50.06
83116;BME280;72996;40.206;44.498;2024-03-22T04:19:05;88409.56;;;11.36;50.00
83116;BME280;72996;40.206;44.498;2024-03-22T04:21:31;88436.91;;;11.59;49.89
83116;BME280;72996;40.206;44.498;2024-03-22T04:23:56;88423.28;;;11.53;50.00
83116;BME280;72996;40.206;44.498;2024-03-22T04:26:22;88442.31;;;11.71;49.71
83116;BME280;72996;40.206;44.498;2024-03-22T04:28:48;88415.75;;;11.59;49.34
83116;BME280;72996;40.206;44.498;2024-03-22T04:31:14;88440.03;;;11.77;49.71
83116;BME280;72996;40.206;44.498;2024-03-22T04:33:43;88418.22;;;11.67;49.30
83116;BME280;72996;40.206;44.498;2024-03-22T04:36:09;88422.47;;;11.81;49.13
83116;BME280;72996;40.206;44.498;2024-03-22T04:38:38;88438.56;;;11.95;49.70
83116;BME280;72996;40.206;44.498;2024-03-22T04:41:04;88435.81;;;11.93;49.25
83116;BME280;72996;40.206;44.498;2024-03-22T04:43:29;88437.69;;;12.02;49.22
83116;BME280;72996;40.206;44.498;2024-03-22T04:45:55;88442.78;;;12.09;48.87
83116;BME280;72996;40.206;44.498;2024-03-22T04:48:22;88419.69;;;12.00;48.72
83116;BME280;72996;40.206;44.498;2024-03-22T04:50:52;88438.47;;;12.14;48.59
83116;BME280;72996;40.206;44.498;2024-03-22T04:53:19;88440.22;;;12.21;48.28
83116;BME280;72996;40.206;44.498;2024-03-22T04:55:46;88454.09;;;12.31;48.36
83116;BME280;72996;40.206;44.498;2024-03-22T04:58:17;88456.03;;;12.30;47.98
83116;BME280;72996;40.206;44.498;2024-03-22T05:00:43;88461.41;;;12.42;48.27
83116;BME280;72996;40.206;44.498;2024-03-22T05:03:10;88442.84;;;12.42;48.21
83116;BME280;72996;40.206;44.498;2024-03-22T05:05:37;88468.47;;;12.70;47.73
83116;BME280;72996;40.206;44.498;2024-03-22T05:08:03;88436.16;;;12.62;47.57
83116;BME280;72996;40.206;44.498;2024-03-22T05:10:30;88454.91;;;12.87;47.74
83116;BME280;72996;40.206;44.498;2024-03-22T05:12:56;88467.00;;;12.90;47.57
83116;BME280;72996;40.206;44.498;2024-03-22T05:15:22;88473.22;;;13.04;47.16
83116;BME280;72996;40.206;44.498;2024-03-22T05:17:48;88463.75;;;13.01;47.47
83116;BME280;72996;40.206;44.498;2024-03-22T05:20:14;88479.81;;;13.14;47.09
83116;BME280;72996;40.206;44.498;2024-03-22T05:22:41;88483.16;;;13.15;46.94
83116;BME280;72996;40.206;44.498;2024-03-22T05:25:08;88472.97;;;13.00;46.82
83116;BME280;72996;40.206;44.498;2024-03-22T05:27:34;88480.28;;;12.90;47.65
83116;BME280;72996;40.206;44.498;2024-03-22T05:29:59;88491.69;;;12.81;47.75
83116;BME280;72996;40.206;44.498;2024-03-22T05:32:26;88493.19;;;12.63;48.99
83116;BME280;72996;40.206;44.498;2024-03-22T05:34:53;88480.28;;;12.36;49.70
83116;BME280;72996;40.206;44.498;2024-03-22T05:37:19;88491.06;;;12.50;50.29
83116;BME280;72996;40.206;44.498;2024-03-22T05:39:45;88479.19;;;12.51;49.84
83116;BME280;72996;40.206;44.498;2024-03-22T05:42:11;88487.25;;;12.53;49.63
83116;BME280;72996;40.206;44.498;2024-03-22T05:44:36;88500.28;;;12.70;49.60
83116;BME280;72996;40.206;44.498;2024-03-22T05:47:02;88503.16;;;12.74;49.32
83116;BME280;72996;40.206;44.498;2024-03-22T05:49:28;88498.94;;;12.80;49.76
83116;BME280;72996;40.206;44.498;2024-03-22T05:51:54;88482.66;;;12.74;49.34
83116;BME280;72996;40.206;44.498;2024-03-22T05:54:20;88483.38;;;12.86;49.01
83116;BME280;72996;40.206;44.498;2024-03-22T05:56:49;88467.31;;;12.73;49.59
83116;BME280;72996;40.206;44.498;2024-03-22T05:59:15;88478.88;;;12.77;49.86
83116;BME280;72996;40.206;44.498;2024-03-22T06:01:40;88491.91;;;12.85;49.42
83116;BME280;72996;40.206;44.498;2024-03-22T06:04:06;88499.63;;;12.81;49.71
83116;BME280;72996;40.206;44.498;2024-03-22T06:06:33;88488.41;;;12.71;49.27
83116;BME280;72996;40.206;44.498;2024-03-22T06:08:59;88468.84;;;12.55;50.21
83116;BME280;72996;40.206;44.498;2024-03-22T06:11:28;88482.47;;;12.61;50.21
83116;BME280;72996;40.206;44.498;2024-03-22T06:13:54;88495.19;;;12.74;50.06
83116;BME280;72996;40.206;44.498;2024-03-22T06:16:20;88495.59;;;12.59;49.99
83116;BME280;72996;40.206;44.498;2024-03-22T06:18:46;88488.91;;;12.58;49.92
83116;BME280;72996;40.206;44.498;2024-03-22T06:21:11;88500.66;;;12.55;50.20
83116;BME280;72996;40.206;44.498;2024-03-22T06:23:40;88481.47;;;12.45;50.82
83116;BME280;72996;40.206;44.498;2024-03-22T06:26:09;88490.28;;;12.59;51.10
83116;BME280;72996;40.206;44.498;2024-03-22T06:28:37;88487.53;;;12.57;50.78
83116;BME280;72996;40.206;44.498;2024-03-22T06:31:03;88473.19;;;12.50;51.33
83116;BME280;72996;40.206;44.498;2024-03-22T06:33:29;88500.13;;;12.68;51.44
83116;BME280;72996;40.206;44.498;2024-03-22T06:35:55;88482.72;;;12.65;51.28
83116;BME280;72996;40.206;44.498;2024-03-22T06:38:20;88492.06;;;12.66;51.56
83116;BME280;72996;40.206;44.498;2024-03-22T06:40:46;88490.69;;;12.65;51.77
83116;BME280;72996;40.206;44.498;2024-03-22T06:43:12;88474.78;;;12.65;52.60
83116;BME280;72996;40.206;44.498;2024-03-22T06:45:37;88453.25;;;12.49;52.24
83116;BME280;72996;40.206;44.498;2024-03-22T06:48:03;88461.06;;;12.68;52.64
83116;BME280;72996;40.206;44.498;2024-03-22T06:50:29;88451.91;;;12.81;52.50
83116;BME280;72996;40.206;44.498;2024-03-22T06:52:55;88447.31;;;12.93;51.60
83116;BME280;72996;40.206;44.498;2024-03-22T06:55:21;88437.44;;;13.05;51.09
83116;BME280;72996;40.206;44.498;2024-03-22T06:57:48;88409.53;;;13.04;51.74
83116;BME280;72996;40.206;44.498;2024-03-22T07:00:15;88392.94;;;13.15;51.71
83116;BME280;72996;40.206;44.498;2024-03-22T07:02:41;88374.75;;;13.32;51.21
83116;BME280;72996;40.206;44.498;2024-03-22T07:05:08;88378.41;;;13.85;51.31
83116;BME280;72996;40.206;44.498;2024-03-22T07:07:35;88413.63;;;14.20;50.75
83116;BME280;72996;40.206;44.498;2024-03-22T07:10:04;88403.53;;;14.18;49.22
83116;BME280;72996;40.206;44.498;2024-03-22T07:12:33;88407.25;;;14.02;49.41
83116;BME280;72996;40.206;44.498;2024-03-22T07:15:02;88404.72;;;14.04;49.47
83116;BME280;72996;40.206;44.498;2024-03-22T07:17:30;88389.75;;;13.85;49.59
83116;BME280;72996;40.206;44.498;2024-03-22T07:19:56;88398.94;;;13.96;49.32
83116;BME280;72996;40.206;44.498;2024-03-22T07:22:22;88387.19;;;13.87;49.78
83116;BME280;72996;40.206;44.498;2024-03-22T07:24:48;88381.88;;;13.76;50.49
83116;BME280;72996;40.206;44.498;2024-03-22T07:27:14;88377.75;;;13.73;50.17
83116;BME280;72996;40.206;44.498;2024-03-22T07:29:54;88343.13;;;13.48;49.79
83116;BME280;72996;40.206;44.498;2024-03-22T07:32:20;88369.09;;;13.61;50.03
83116;BME280;72996;40.206;44.498;2024-03-22T07:34:46;88341.53;;;13.43;50.07
83116;BME280;72996;40.206;44.498;2024-03-22T07:37:12;88325.69;;;13.45;49.40
83116;BME280;72996;40.206;44.498;2024-03-22T07:39:37;88336.19;;;13.66;49.29
83116;BME280;72996;40.206;44.498;2024-03-22T07:42:03;88337.56;;;13.67;48.97
83116;BME280;72996;40.206;44.498;2024-03-22T07:44:29;88326.59;;;13.61;49.26
83116;BME280;72996;40.206;44.498;2024-03-22T07:46:55;88332.81;;;13.77;48.66
83116;BME280;72996;40.206;44.498;2024-03-22T07:49:20;88332.00;;;13.86;49.06
83116;BME280;72996;40.206;44.498;2024-03-22T07:51:46;88328.28;;;13.91;48.80
83116;BME280;72996;40.206;44.498;2024-03-22T07:54:12;88316.50;;;13.94;48.06
83116;BME280;72996;40.206;44.498;2024-03-22T07:56:38;88326.72;;;14.11;48.59
83116;BME280;72996;40.206;44.498;2024-03-22T07:59:03;88326.25;;;14.14;48.25
83116;BME280;72996;40.206;44.498;2024-03-22T08:01:30;88315.28;;;14.20;48.47
83116;BME280;72996;40.206;44.498;2024-03-22T08:03:55;88313.50;;;14.36;48.12
83116;BME280;72996;40.206;44.498;2024-03-22T08:06:28;88303.88;;;14.42;47.81
83116;BME280;72996;40.206;44.498;2024-03-22T08:08:54;88294.84;;;14.47;47.59
83116;BME280;72996;40.206;44.498;2024-03-22T08:11:20;88304.16;;;14.60;48.00
83116;BME280;72996;40.206;44.498;2024-03-22T08:13:45;88295.91;;;14.67;47.43
83116;BME280;72996;40.206;44.498;2024-03-22T08:16:12;88291.88;;;14.80;47.42
83116;BME280;72996;40.206;44.498;2024-03-22T08:18:37;88288.00;;;15.08;47.75
83116;BME280;72996;40.206;44.498;2024-03-22T08:21:03;88282.09;;;15.23;46.58
83116;BME280;72996;40.206;44.498;2024-03-22T08:23:29;88281.00;;;15.28;46.34
83116;BME280;72996;40.206;44.498;2024-03-22T08:25:55;88283.69;;;15.28;45.81
83116;BME280;72996;40.206;44.498;2024-03-22T08:28:23;88268.50;;;15.17;46.09
83116;BME280;72996;40.206;44.498;2024-03-22T08:30:49;88280.59;;;15.20;46.11
83116;BME280;72996;40.206;44.498;2024-03-22T08:33:14;88265.22;;;15.05;45.84
83116;BME280;72996;40.206;44.498;2024-03-22T08:35:40;88252.09;;;15.09;45.56
83116;BME280;72996;40.206;44.498;2024-03-22T08:38:06;88255.47;;;15.23;45.83
83116;BME280;72996;40.206;44.498;2024-03-22T08:40:37;88254.09;;;15.22;45.83
83116;BME280;72996;40.206;44.498;2024-03-22T08:43:03;88261.59;;;15.12;45.73
83116;BME280;72996;40.206;44.498;2024-03-22T08:45:30;88252.41;;;15.01;45.77
83116;BME280;72996;40.206;44.498;2024-03-22T08:47:55;88248.34;;;14.87;45.80
83116;BME280;72996;40.206;44.498;2024-03-22T08:50:21;88252.06;;;14.82;45.79
83116;BME280;72996;40.206;44.498;2024-03-22T08:52:47;88254.03;;;14.81;45.41
83116;BME280;72996;40.206;44.498;2024-03-22T08:55:13;88234.53;;;14.77;45.89
83116;BME280;72996;40.206;44.498;2024-03-22T08:57:38;88242.94;;;14.85;45.88
83116;BME280;72996;40.206;44.498;2024-03-22T09:00:04;88227.63;;;14.72;45.60
83116;BME280;72996;40.206;44.498;2024-03-22T09:02:33;88230.66;;;14.66;45.58
83116;BME280;72996;40.206;44.498;2024-03-22T09:04:59;88224.25;;;14.58;45.92
83116;BME280;72996;40.206;44.498;2024-03-22T09:07:25;88218.94;;;14.58;46.08
83116;BME280;72996;40.206;44.498;2024-03-22T09:09:51;88200.31;;;14.58;46.01
83116;BME280;72996;40.206;44.498;2024-03-22T09:12:19;88192.63;;;14.64;45.75
83116;BME280;72996;40.206;44.498;2024-03-22T09:14:45;88185.75;;;14.59;45.98
83116;BME280;72996;40.206;44.498;2024-03-22T09:17:11;88197.38;;;14.79;45.64
83116;BME280;72996;40.206;44.498;2024-03-22T09:19:37;88196.00;;;14.78;45.31
83116;BME280;72996;40.206;44.498;2024-03-22T09:22:02;88194.34;;;14.71;45.61
83116;BME280;72996;40.206;44.498;2024-03-22T09:24:28;88185.84;;;14.61;45.53
83116;BME280;72996;40.206;44.498;2024-03-22T09:26:54;88185.75;;;14.59;45.28
83116;BME280;72996;40.206;44.498;2024-03-22T09:29:20;88170.97;;;14.42;45.80
83116;BME280;72996;40.206;44.498;2024-03-22T09:31:46;88178.34;;;14.44;45.44
83116;BME280;72996;40.206;44.498;2024-03-22T09:34:12;88180.13;;;14.53;45.63
83116;BME280;72996;40.206;44.498;2024-03-22T09:36:38;88183.06;;;14.59;45.65
83116;BME280;72996;40.206;44.498;2024-03-22T09:39:04;88189.69;;;14.58;45.66
83116;BME280;72996;40.206;44.498;2024-03-22T09:41:32;88189.00;;;14.57;45.90
83116;BME280;72996;40.206;44.498;2024-03-22T09:43:58;88185.66;;;14.57;45.52
83116;BME280;72996;40.206;44.498;2024-03-22T09:46:34;88193.63;;;14.57;45.61
83116;BME280;72996;40.206;44.498;2024-03-22T09:49:00;88184.91;;;14.43;46.01
83116;BME280;72996;40.206;44.498;2024-03-22T09:51:27;88187.78;;;14.47;46.19
83116;BME280;72996;40.206;44.498;2024-03-22T09:53:53;88164.34;;;14.43;46.11
83116;BME280;72996;40.206;44.498;2024-03-22T09:56:21;88168.97;;;14.43;46.00
83116;BME280;72996;40.206;44.498;2024-03-22T09:58:47;88148.00;;;14.10;45.75
83116;BME280;72996;40.206;44.498;2024-03-22T10:01:14;88168.28;;;14.29;46.00
83116;BME280;72996;40.206;44.498;2024-03-22T10:03:39;88149.97;;;14.35;46.18
83116;BME280;72996;40.206;44.498;2024-03-22T10:06:05;88130.84;;;14.25;45.92
83116;BME280;72996;40.206;44.498;2024-03-22T10:08:31;88146.53;;;14.46;45.66
83116;BME280;72996;40.206;44.498;2024-03-22T10:10:57;88137.19;;;14.45;45.68
83116;BME280;72996;40.206;44.498;2024-03-22T10:13:23;88128.91;;;14.39;46.16
83116;BME280;72996;40.206;44.498;2024-03-22T10:15:49;88125.66;;;14.40;45.69
83116;BME280;72996;40.206;44.498;2024-03-22T10:18:14;88128.91;;;14.39;45.87
83116;BME280;72996;40.206;44.498;2024-03-22T10:20:41;88099.84;;;14.29;45.97
83116;BME280;72996;40.206;44.498;2024-03-22T10:23:08;88082.56;;;14.17;45.91
83116;BME280;72996;40.206;44.498;2024-03-22T10:25:34;88093.06;;;14.40;45.93
83116;BME280;72996;40.206;44.498;2024-03-22T10:28:00;88115.63;;;14.66;45.45
83116;BME280;72996;40.206;44.498;2024-03-22T10:30:35;88096.63;;;14.58;45.36
83116;BME280;72996;40.206;44.498;2024-03-22T10:33:02;88079.28;;;14.30;45.30
83116;BME280;72996;40.206;44.498;2024-03-22T10:35:29;88075.19;;;14.15;45.86
83116;BME280;72996;40.206;44.498;2024-03-22T10:37:55;88103.72;;;14.40;45.90
83116;BME280;72996;40.206;44.498;2024-03-22T10:40:22;88092.00;;;14.45;44.78
83116;BME280;72996;40.206;44.498;2024-03-22T10:42:48;88092.28;;;14.51;45.30
83116;BME280;72996;40.206;44.498;2024-03-22T10:45:13;88094.66;;;14.45;45.78
83116;BME280;72996;40.206;44.498;2024-03-22T10:47:39;88087.16;;;14.41;45.59
83116;BME280;72996;40.206;44.498;2024-03-22T10:50:10;88080.16;;;14.34;44.87
83116;BME280;72996;40.206;44.498;2024-03-22T10:55:27;88068.16;;;14.47;45.62
83116;BME280;72996;40.206;44.498;2024-03-22T10:57:57;88076.91;;;14.63;45.13
83116;BME280;72996;40.206;44.498;2024-03-22T11:00:29;88067.34;;;14.71;44.41
83116;BME280;72996;40.206;44.498;2024-03-22T11:02:56;88059.50;;;14.73;45.06
83116;BME280;72996;40.206;44.498;2024-03-22T11:05:22;88045.19;;;14.67;44.71
83116;BME280;72996;40.206;44.498;2024-03-22T11:07:57;88057.63;;;14.76;45.30
83116;BME280;72996;40.206;44.498;2024-03-22T11:10:29;88061.94;;;14.83;44.65
83116;BME280;72996;40.206;44.498;2024-03-22T11:13:04;88063.53;;;14.74;43.94
83116;BME280;72996;40.206;44.498;2024-03-22T11:15:32;88042.53;;;14.67;44.48
83116;BME280;72996;40.206;44.498;2024-03-22T11:17:59;88053.16;;;14.80;44.26
83116;BME280;72996;40.206;44.498;2024-03-22T11:20:28;88065.06;;;14.93;43.69
83116;BME280;72996;40.206;44.498;2024-03-22T11:22:55;88069.38;;;15.00;44.14
83116;BME280;72996;40.206;44.498;2024-03-22T11:25:21;88058.38;;;14.92;44.30
83116;BME280;72996;40.206;44.498;2024-03-22T11:27:47;88058.88;;;14.88;44.29
83116;BME280;72996;40.206;44.498;2024-03-22T11:30:13;88036.13;;;14.72;44.07
83116;BME280;72996;40.206;44.498;2024-03-22T11:32:40;88056.41;;;14.79;44.62
83116;BME280;72996;40.206;44.498;2024-03-22T11:35:11;88057.41;;;14.72;44.77
83116;BME280;72996;40.206;44.498;2024-03-22T11:37:38;88054.66;;;14.70;44.98
83116;BME280;72996;40.206;44.498;2024-03-22T11:40:05;88054.84;;;14.74;44.82
83116;BME280;72996;40.206;44.498;2024-03-22T11:42:34;88046.97;;;14.76;43.90
83116;BME280;72996;40.206;44.498;2024-03-22T11:45:01;88062.50;;;14.81;44.20
83116;BME280;72996;40.206;44.498;2024-03-22T11:47:27;88057.81;;;14.80;44.24
83116;BME280;72996;40.206;44.498;2024-03-22T11:49:55;88051.09;;;14.79;44.48
83116;BME280;72996;40.206;44.498;2024-03-22T11:52:25;88060.75;;;14.86;43.76
83116;BME280;72996;40.206;44.498;2024-03-22T11:54:51;88048.75;;;14.85;44.24
83116;BME280;72996;40.206;44.498;2024-03-22T11:57:21;88052.97;;;14.90;44.50
83116;BME280;72996;40.206;44.498;2024-03-22T11:59:47;88051.69;;;14.91;44.46
83116;BME280;72996;40.206;44.498;2024-03-22T12:02:13;88052.19;;;14.87;44.20
83116;BME280;72996;40.206;44.498;2024-03-22T12:04:42;88049.63;;;14.76;44.58
83116;BME280;72996;40.206;44.498;2024-03-22T12:07:12;88044.78;;;14.86;43.25
83116;BME280;72996;40.206;44.498;2024-03-22T12:09:39;88033.41;;;14.70;43.49
83116;BME280;72996;40.206;44.498;2024-03-22T12:12:08;88041.34;;;14.83;43.28
83116;BME280;72996;40.206;44.498;2024-03-22T12:14:35;88039.66;;;14.90;43.20
83116;BME280;72996;40.206;44.498;2024-03-22T12:17:04;88047.50;;;15.01;43.47
83116;BME280;72996;40.206;44.498;2024-03-22T12:19:30;88051.47;;;15.00;43.31
83116;BME280;72996;40.206;44.498;2024-03-22T12:21:56;88043.16;;;15.08;43.49
83116;BME280;72996;40.206;44.498;2024-03-22T12:24:23;88048.47;;;15.08;43.56
83116;BME280;72996;40.206;44.498;2024-03-22T12:26:49;88043.66;;;15.04;43.93
83116;BME280;72996;40.206;44.498;2024-03-22T12:29:16;88025.44;;;14.99;44.11
83116;BME280;72996;40.206;44.498;2024-03-22T12:31:42;88028.38;;;15.05;43.63
83116;BME280;72996;40.206;44.498;2024-03-22T12:34:09;88021.88;;;15.08;43.77
83116;BME280;72996;40.206;44.498;2024-03-22T12:36:35;88016.00;;;14.96;43.67
83116;BME280;72996;40.206;44.498;2024-03-22T12:39:01;88022.88;;;15.01;43.93
83116;BME280;72996;40.206;44.498;2024-03-22T12:41:30;88022.28;;;15.02;43.60
83116;BME280;72996;40.206;44.498;2024-03-22T12:43:56;88032.72;;;15.12;43.58
83116;BME280;72996;40.206;44.498;2024-03-22T12:46:22;88038.22;;;15.16;43.81
83116;BME280;72996;40.206;44.498;2024-03-22T12:48:47;88031.03;;;15.18;43.96